sensor_id;sensor_type;location;lat;lon;timestamp;temperature;humidity
10512;DHT22;5304;48.604;2.096;2022-11-20T00:02:15;5.20;99.90
10512;DHT22;5304;48.604;2.096;2022-11-20T00:05:00;5.10;99.90
10512;DHT22;5304;48.604;2.096;2022-11-20T00:07:44;5.20;99.90
10512;DHT22;5304;48.604;2.096;2022-11-20T00:10:29;5.20;99.90
10512;DHT22;5304;48.604;2.096;2022-11-20T00:13:14;5.20;99.90
10512;DHT22;5304;48.604;2.096;2022-11-20T00:15:59;5.10;99.90
10512;DHT22;5304;48.604;2.096;2022-11-20T00:18:44;5.10;99.90
10512;DHT22;5304;48.604;2.096;2022-11-20T00:21:29;5.10;99.90
10512;DHT22;5304;48.604;2.096;2022-11-20T00:24:14;5.10;99.90
10512;DHT22;5304;48.604;2.096;2022-11-20T00:26:58;5.00;99.90
10512;DHT22;5304;48.604;2.096;2022-11-20T00:29:42;5.00;99.90
10512;DHT22;5304;48.604;2.096;2022-11-20T00:32:27;4.90;99.90
10512;DHT22;5304;48.604;2.096;2022-11-20T00:35:11;4.90;99.90
10512;DHT22;5304;48.604;2.096;2022-11-20T00:37:56;4.80;99.90
10512;DHT22;5304;48.604;2.096;2022-11-20T00:40:41;4.80;99.90
10512;DHT22;5304;48.604;2.096;2022-11-20T00:43:26;4.70;99.90
10512;DHT22;5304;48.604;2.096;2022-11-20T00:46:16;4.70;99.90
10512;DHT22;5304;48.604;2.096;2022-11-20T00:49:01;4.60;99.90
10512;DHT22;5304;48.604;2.096;2022-11-20T00:51:46;4.60;99.90
10512;DHT22;5304;48.604;2.096;2022-11-20T00:54:30;4.50;99.90
10512;DHT22;5304;48.604;2.096;2022-11-20T00:57:15;4.50;99.90
10512;DHT22;5304;48.604;2.096;2022-11-20T00:59:59;4.50;99.90
10512;DHT22;5304;48.604;2.096;2022-11-20T01:02:44;4.40;99.90
10512;DHT22;5304;48.604;2.096;2022-11-20T01:05:28;4.40;99.90
10512;DHT22;5304;48.604;2.096;2022-11-20T01:08:13;4.40;99.90
10512;DHT22;5304;48.604;2.096;2022-11-20T01:11:07;4.40;99.90
10512;DHT22;5304;48.604;2.096;2022-11-20T01:13:53;4.30;99.90
10512;DHT22;5304;48.604;2.096;2022-11-20T01:16:41;4.30;99.90
10512;DHT22;5304;48.604;2.096;2022-11-20T01:19:25;4.30;99.90
10512;DHT22;5304;48.604;2.096;2022-11-20T01:22:09;4.20;99.90
10512;DHT22;5304;48.604;2.096;2022-11-20T01:24:54;4.20;99.90
10512;DHT22;5304;48.604;2.096;2022-11-20T01:27:39;4.10;99.90
10512;DHT22;5304;48.604;2.096;2022-11-20T01:30:23;4.10;99.90
10512;DHT22;5304;48.604;2.096;2022-11-20T01:33:08;4.00;99.90
10512;DHT22;5304;48.604;2.096;2022-11-20T01:35:52;4.00;99.90
10512;DHT22;5304;48.604;2.096;2022-11-20T01:38:37;4.00;99.90
10512;DHT22;5304;48.604;2.096;2022-11-20T01:41:24;3.90;99.90
10512;DHT22;5304;48.604;2.096;2022-11-20T01:44:46;3.90;99.90
10512;DHT22;5304;48.604;2.096;2022-11-20T01:47:39;3.90;99.90
10512;DHT22;5304;48.604;2.096;2022-11-20T01:50:27;3.80;99.90
10512;DHT22;5304;48.604;2.096;2022-11-20T01:53:16;3.90;99.90
10512;DHT22;5304;48.604;2.096;2022-11-20T01:56:03;3.90;99.90
10512;DHT22;5304;48.604;2.096;2022-11-20T01:58:54;3.90;99.90
10512;DHT22;5304;48.604;2.096;2022-11-20T02:01:40;3.80;99.90
10512;DHT22;5304;48.604;2.096;2022-11-20T02:04:25;3.80;99.90
10512;DHT22;5304;48.604;2.096;2022-11-20T02:07:10;3.80;99.90
10512;DHT22;5304;48.604;2.096;2022-11-20T02:09:55;3.80;99.90
10512;DHT22;5304;48.604;2.096;2022-11-20T02:12:40;3.70;99.90
10512;DHT22;5304;48.604;2.096;2022-11-20T02:15:43;3.70;99.90
10512;DHT22;5304;48.604;2.096;2022-11-20T02:18:28;3.70;99.90
10512;DHT22;5304;48.604;2.096;2022-11-20T02:24:19;3.80;99.90
10512;DHT22;5304;48.604;2.096;2022-11-20T02:27:15;3.90;99.90
10512;DHT22;5304;48.604;2.096;2022-11-20T02:30:03;3.90;99.90
10512;DHT22;5304;48.604;2.096;2022-11-20T02:32:48;4.00;99.90
10512;DHT22;5304;48.604;2.096;2022-11-20T02:38:17;4.00;99.90
10512;DHT22;5304;48.604;2.096;2022-11-20T02:41:01;4.00;99.90
10512;DHT22;5304;48.604;2.096;2022-11-20T02:43:45;4.10;99.90
10512;DHT22;5304;48.604;2.096;2022-11-20T02:46:30;4.00;99.90
10512;DHT22;5304;48.604;2.096;2022-11-20T02:49:15;4.00;99.90
10512;DHT22;5304;48.604;2.096;2022-11-20T02:52:01;4.00;99.90
10512;DHT22;5304;48.604;2.096;2022-11-20T02:54:45;3.90;99.90
10512;DHT22;5304;48.604;2.096;2022-11-20T02:57:30;3.90;99.90
10512;DHT22;5304;48.604;2.096;2022-11-20T03:00:14;3.90;99.90
10512;DHT22;5304;48.604;2.096;2022-11-20T03:02:59;3.80;99.90
10512;DHT22;5304;48.604;2.096;2022-11-20T03:05:44;3.70;99.90
10512;DHT22;5304;48.604;2.096;2022-11-20T03:08:28;3.70;99.90
10512;DHT22;5304;48.604;2.096;2022-11-20T03:11:13;3.60;99.90
10512;DHT22;5304;48.604;2.096;2022-11-20T03:13:57;3.60;99.90
10512;DHT22;5304;48.604;2.096;2022-11-20T03:16:42;3.50;99.90
10512;DHT22;5304;48.604;2.096;2022-11-20T03:19:26;3.50;99.90
10512;DHT22;5304;48.604;2.096;2022-11-20T03:22:11;3.50;99.90
10512;DHT22;5304;48.604;2.096;2022-11-20T03:24:55;3.50;99.90
10512;DHT22;5304;48.604;2.096;2022-11-20T03:27:40;3.50;99.90
10512;DHT22;5304;48.604;2.096;2022-11-20T03:30:24;3.60;99.90
10512;DHT22;5304;48.604;2.096;2022-11-20T03:33:09;3.80;99.90
10512;DHT22;5304;48.604;2.096;2022-11-20T03:35:53;3.80;99.90
10512;DHT22;5304;48.604;2.096;2022-11-20T03:38:38;3.90;99.90
10512;DHT22;5304;48.604;2.096;2022-11-20T03:41:28;3.80;99.90
10512;DHT22;5304;48.604;2.096;2022-11-20T03:44:13;3.60;99.90
10512;DHT22;5304;48.604;2.096;2022-11-20T03:46:57;3.60;99.90
10512;DHT22;5304;48.604;2.096;2022-11-20T03:49:42;3.60;99.90
10512;DHT22;5304;48.604;2.096;2022-11-20T03:52:26;3.50;99.90
10512;DHT22;5304;48.604;2.096;2022-11-20T03:55:10;3.50;99.90
10512;DHT22;5304;48.604;2.096;2022-11-20T03:57:55;3.50;99.90
10512;DHT22;5304;48.604;2.096;2022-11-20T04:00:39;3.50;99.90
10512;DHT22;5304;48.604;2.096;2022-11-20T04:03:26;3.60;99.90
10512;DHT22;5304;48.604;2.096;2022-11-20T04:06:17;3.70;99.90
10512;DHT22;5304;48.604;2.096;2022-11-20T04:09:02;3.70;99.90
10512;DHT22;5304;48.604;2.096;2022-11-20T04:11:46;3.80;99.90
10512;DHT22;5304;48.604;2.096;2022-11-20T04:14:31;3.80;99.90
10512;DHT22;5304;48.604;2.096;2022-11-20T04:17:16;3.80;99.90
10512;DHT22;5304;48.604;2.096;2022-11-20T04:20:01;3.80;99.90
10512;DHT22;5304;48.604;2.096;2022-11-20T04:22:45;3.80;99.90
10512;DHT22;5304;48.604;2.096;2022-11-20T04:25:30;3.80;99.90
10512;DHT22;5304;48.604;2.096;2022-11-20T04:28:14;3.80;99.90
10512;DHT22;5304;48.604;2.096;2022-11-20T04:31:09;3.70;99.90
10512;DHT22;5304;48.604;2.096;2022-11-20T04:33:53;3.90;99.90
10512;DHT22;5304;48.604;2.096;2022-11-20T04:36:38;4.10;99.90
10512;DHT22;5304;48.604;2.096;2022-11-20T04:39:23;4.10;99.90
10512;DHT22;5304;48.604;2.096;2022-11-20T04:42:09;4.00;99.90
10512;DHT22;5304;48.604;2.096;2022-11-20T04:45:12;3.90;99.90
10512;DHT22;5304;48.604;2.096;2022-11-20T04:47:57;3.90;99.90
10512;DHT22;5304;48.604;2.096;2022-11-20T04:50:41;3.80;99.90
10512;DHT22;5304;48.604;2.096;2022-11-20T04:53:26;3.80;99.90
10512;DHT22;5304;48.604;2.096;2022-11-20T04:56:12;3.90;99.90
10512;DHT22;5304;48.604;2.096;2022-11-20T04:59:00;3.80;99.90
10512;DHT22;5304;48.604;2.096;2022-11-20T05:01:45;3.80;99.90
10512;DHT22;5304;48.604;2.096;2022-11-20T05:04:29;3.90;99.90
10512;DHT22;5304;48.604;2.096;2022-11-20T05:07:13;4.20;99.90
10512;DHT22;5304;48.604;2.096;2022-11-20T05:09:58;4.20;99.90
10512;DHT22;5304;48.604;2.096;2022-11-20T05:12:43;4.20;99.90
10512;DHT22;5304;48.604;2.096;2022-11-20T05:15:27;4.20;99.90
10512;DHT22;5304;48.604;2.096;2022-11-20T05:18:11;4.20;99.90
10512;DHT22;5304;48.604;2.096;2022-11-20T05:20:56;4.20;99.90
10512;DHT22;5304;48.604;2.096;2022-11-20T05:23:41;4.20;99.90
10512;DHT22;5304;48.604;2.096;2022-11-20T05:26:26;4.20;99.90
10512;DHT22;5304;48.604;2.096;2022-11-20T05:29:11;4.20;99.90
10512;DHT22;5304;48.604;2.096;2022-11-20T05:31:56;4.10;99.90
10512;DHT22;5304;48.604;2.096;2022-11-20T05:34:40;4.10;99.90
10512;DHT22;5304;48.604;2.096;2022-11-20T05:37:25;4.10;99.90
10512;DHT22;5304;48.604;2.096;2022-11-20T05:40:10;4.10;99.90
10512;DHT22;5304;48.604;2.096;2022-11-20T05:42:54;4.10;99.90
10512;DHT22;5304;48.604;2.096;2022-11-20T05:45:38;4.00;99.90
10512;DHT22;5304;48.604;2.096;2022-11-20T05:48:23;3.90;99.90
10512;DHT22;5304;48.604;2.096;2022-11-20T05:51:10;3.80;99.90
10512;DHT22;5304;48.604;2.096;2022-11-20T05:53:58;3.80;99.90
10512;DHT22;5304;48.604;2.096;2022-11-20T05:56:42;3.80;99.90
10512;DHT22;5304;48.604;2.096;2022-11-20T05:59:27;3.70;99.90
10512;DHT22;5304;48.604;2.096;2022-11-20T06:02:11;3.60;99.90
10512;DHT22;5304;48.604;2.096;2022-11-20T06:04:56;3.60;99.90
10512;DHT22;5304;48.604;2.096;2022-11-20T06:07:40;3.60;99.90
10512;DHT22;5304;48.604;2.096;2022-11-20T06:10:25;3.50;99.90
10512;DHT22;5304;48.604;2.096;2022-11-20T06:13:09;3.40;99.90
10512;DHT22;5304;48.604;2.096;2022-11-20T06:15:54;3.40;99.90
10512;DHT22;5304;48.604;2.096;2022-11-20T06:18:38;3.60;99.90
10512;DHT22;5304;48.604;2.096;2022-11-20T06:21:23;3.50;99.90
10512;DHT22;5304;48.604;2.096;2022-11-20T06:24:09;3.40;99.90
10512;DHT22;5304;48.604;2.096;2022-11-20T06:26:54;3.40;99.90
10512;DHT22;5304;48.604;2.096;2022-11-20T06:29:38;3.50;99.90
10512;DHT22;5304;48.604;2.096;2022-11-20T06:32:23;3.50;99.90
10512;DHT22;5304;48.604;2.096;2022-11-20T06:35:08;3.50;99.90
10512;DHT22;5304;48.604;2.096;2022-11-20T06:37:52;3.50;99.90
10512;DHT22;5304;48.604;2.096;2022-11-20T06:40:43;3.60;99.90
10512;DHT22;5304;48.604;2.096;2022-11-20T06:43:29;3.60;99.90
10512;DHT22;5304;48.604;2.096;2022-11-20T06:46:15;3.70;99.90
10512;DHT22;5304;48.604;2.096;2022-11-20T06:49:03;3.80;99.90
10512;DHT22;5304;48.604;2.096;2022-11-20T06:51:48;3.80;99.90
10512;DHT22;5304;48.604;2.096;2022-11-20T06:54:32;3.90;99.90
10512;DHT22;5304;48.604;2.096;2022-11-20T06:57:16;4.00;99.90
10512;DHT22;5304;48.604;2.096;2022-11-20T07:00:01;4.10;99.90
10512;DHT22;5304;48.604;2.096;2022-11-20T07:02:46;4.00;99.90
10512;DHT22;5304;48.604;2.096;2022-11-20T07:05:30;4.00;99.90
10512;DHT22;5304;48.604;2.096;2022-11-20T07:08:14;4.00;99.90
10512;DHT22;5304;48.604;2.096;2022-11-20T07:11:00;4.00;99.90
10512;DHT22;5304;48.604;2.096;2022-11-20T07:13:45;4.00;99.90
10512;DHT22;5304;48.604;2.096;2022-11-20T07:16:30;4.10;99.90
10512;DHT22;5304;48.604;2.096;2022-11-20T07:19:14;4.20;99.90
10512;DHT22;5304;48.604;2.096;2022-11-20T07:21:59;4.30;99.90
10512;DHT22;5304;48.604;2.096;2022-11-20T07:24:43;4.40;99.90
10512;DHT22;5304;48.604;2.096;2022-11-20T07:27:28;4.50;99.90
10512;DHT22;5304;48.604;2.096;2022-11-20T07:30:14;4.50;99.90
10512;DHT22;5304;48.604;2.096;2022-11-20T07:32:58;4.60;99.90
10512;DHT22;5304;48.604;2.096;2022-11-20T07:35:43;4.60;99.90
10512;DHT22;5304;48.604;2.096;2022-11-20T07:38:27;4.70;99.90
10512;DHT22;5304;48.604;2.096;2022-11-20T07:41:12;4.80;99.90
10512;DHT22;5304;48.604;2.096;2022-11-20T07:43:56;4.80;99.90
10512;DHT22;5304;48.604;2.096;2022-11-20T07:46:41;4.90;99.90
10512;DHT22;5304;48.604;2.096;2022-11-20T07:49:26;5.00;99.90
10512;DHT22;5304;48.604;2.096;2022-11-20T07:52:10;5.00;99.90
10512;DHT22;5304;48.604;2.096;2022-11-20T07:54:54;5.10;99.90
10512;DHT22;5304;48.604;2.096;2022-11-20T07:57:39;5.10;99.90
10512;DHT22;5304;48.604;2.096;2022-11-20T08:00:25;5.20;99.90
10512;DHT22;5304;48.604;2.096;2022-11-20T08:03:10;5.30;99.90
10512;DHT22;5304;48.604;2.096;2022-11-20T08:05:54;5.30;99.90
10512;DHT22;5304;48.604;2.096;2022-11-20T08:08:42;5.30;99.90
10512;DHT22;5304;48.604;2.096;2022-11-20T08:11:27;5.40;99.90
10512;DHT22;5304;48.604;2.096;2022-11-20T08:14:30;5.50;99.90
10512;DHT22;5304;48.604;2.096;2022-11-20T08:17:14;5.50;99.90
10512;DHT22;5304;48.604;2.096;2022-11-20T08:19:59;5.50;99.90
10512;DHT22;5304;48.604;2.096;2022-11-20T08:22:43;5.60;99.90
10512;DHT22;5304;48.604;2.096;2022-11-20T08:25:31;5.60;99.90
10512;DHT22;5304;48.604;2.096;2022-11-20T08:28:16;5.70;99.90
10512;DHT22;5304;48.604;2.096;2022-11-20T08:31:02;5.70;99.90
10512;DHT22;5304;48.604;2.096;2022-11-20T08:33:47;5.80;99.90
10512;DHT22;5304;48.604;2.096;2022-11-20T08:36:33;5.80;99.90
10512;DHT22;5304;48.604;2.096;2022-11-20T08:39:18;5.90;99.90
10512;DHT22;5304;48.604;2.096;2022-11-20T08:42:07;6.00;99.90
10512;DHT22;5304;48.604;2.096;2022-11-20T08:44:51;6.00;99.90
10512;DHT22;5304;48.604;2.096;2022-11-20T08:47:36;6.00;99.90
10512;DHT22;5304;48.604;2.096;2022-11-20T08:50:20;6.20;99.90
10512;DHT22;5304;48.604;2.096;2022-11-20T08:53:05;6.20;99.90
10512;DHT22;5304;48.604;2.096;2022-11-20T08:55:50;6.20;99.90
10512;DHT22;5304;48.604;2.096;2022-11-20T08:58:34;6.20;99.90
10512;DHT22;5304;48.604;2.096;2022-11-20T09:01:20;6.30;99.90
10512;DHT22;5304;48.604;2.096;2022-11-20T09:04:04;6.40;99.90
10512;DHT22;5304;48.604;2.096;2022-11-20T09:06:49;6.40;99.90
10512;DHT22;5304;48.604;2.096;2022-11-20T09:09:37;6.40;99.90
10512;DHT22;5304;48.604;2.096;2022-11-20T09:12:21;6.30;99.90
10512;DHT22;5304;48.604;2.096;2022-11-20T09:15:06;6.30;99.90
10512;DHT22;5304;48.604;2.096;2022-11-20T09:17:59;6.30;99.90
10512;DHT22;5304;48.604;2.096;2022-11-20T09:20:44;6.40;99.90
10512;DHT22;5304;48.604;2.096;2022-11-20T09:23:32;6.40;99.90
10512;DHT22;5304;48.604;2.096;2022-11-20T09:26:17;6.40;99.90
10512;DHT22;5304;48.604;2.096;2022-11-20T09:29:01;6.40;99.90
10512;DHT22;5304;48.604;2.096;2022-11-20T09:31:46;6.40;99.90
10512;DHT22;5304;48.604;2.096;2022-11-20T09:34:30;6.50;99.90
10512;DHT22;5304;48.604;2.096;2022-11-20T09:37:15;6.60;99.90
10512;DHT22;5304;48.604;2.096;2022-11-20T09:39:59;6.70;99.90
10512;DHT22;5304;48.604;2.096;2022-11-20T09:46:07;6.80;99.90
10512;DHT22;5304;48.604;2.096;2022-11-20T09:52:17;6.80;99.90
10512;DHT22;5304;48.604;2.096;2022-11-20T09:55:09;6.90;99.90
10512;DHT22;5304;48.604;2.096;2022-11-20T09:57:56;6.90;99.90
10512;DHT22;5304;48.604;2.096;2022-11-20T10:00:42;6.90;99.90
10512;DHT22;5304;48.604;2.096;2022-11-20T10:03:45;6.90;99.90
10512;DHT22;5304;48.604;2.096;2022-11-20T10:06:59;7.00;99.90
10512;DHT22;5304;48.604;2.096;2022-11-20T10:09:51;7.00;99.90
10512;DHT22;5304;48.604;2.096;2022-11-20T10:12:56;7.00;99.90
10512;DHT22;5304;48.604;2.096;2022-11-20T10:18:49;7.00;99.90
10512;DHT22;5304;48.604;2.096;2022-11-20T10:30:19;7.10;99.90
10512;DHT22;5304;48.604;2.096;2022-11-20T10:36:07;7.10;99.90
10512;DHT22;5304;48.604;2.096;2022-11-20T10:39:06;7.10;99.90
10512;DHT22;5304;48.604;2.096;2022-11-20T10:41:54;7.10;99.90
10512;DHT22;5304;48.604;2.096;2022-11-20T10:44:46;7.10;99.90
10512;DHT22;5304;48.604;2.096;2022-11-20T10:47:46;7.10;99.90
10512;DHT22;5304;48.604;2.096;2022-11-20T10:50:31;7.20;99.90
10512;DHT22;5304;48.604;2.096;2022-11-20T10:53:33;7.20;99.90
10512;DHT22;5304;48.604;2.096;2022-11-20T10:56:46;7.10;99.90
10512;DHT22;5304;48.604;2.096;2022-11-20T11:02:43;7.20;99.90
10512;DHT22;5304;48.604;2.096;2022-11-20T11:05:45;7.20;99.90
10512;DHT22;5304;48.604;2.096;2022-11-20T11:08:40;7.20;99.90
10512;DHT22;5304;48.604;2.096;2022-11-20T11:11:33;7.30;99.90
10512;DHT22;5304;48.604;2.096;2022-11-20T11:14:18;7.30;99.90
10512;DHT22;5304;48.604;2.096;2022-11-20T11:17:02;7.20;99.90
10512;DHT22;5304;48.604;2.096;2022-11-20T11:20:18;7.20;99.90
10512;DHT22;5304;48.604;2.096;2022-11-20T11:23:01;7.30;99.90
10512;DHT22;5304;48.604;2.096;2022-11-20T11:25:57;7.30;99.90
10512;DHT22;5304;48.604;2.096;2022-11-20T11:28:59;7.20;99.90
10512;DHT22;5304;48.604;2.096;2022-11-20T11:31:43;7.20;99.90
10512;DHT22;5304;48.604;2.096;2022-11-20T11:34:28;7.20;99.90
10512;DHT22;5304;48.604;2.096;2022-11-20T11:37:19;7.20;99.90
10512;DHT22;5304;48.604;2.096;2022-11-20T11:40:08;7.10;99.90
10512;DHT22;5304;48.604;2.096;2022-11-20T11:43:00;7.10;99.90
10512;DHT22;5304;48.604;2.096;2022-11-20T11:45:52;7.10;99.90
10512;DHT22;5304;48.604;2.096;2022-11-20T11:48:38;7.20;99.90
10512;DHT22;5304;48.604;2.096;2022-11-20T11:51:23;7.20;99.90
10512;DHT22;5304;48.604;2.096;2022-11-20T11:54:21;7.10;99.90
10512;DHT22;5304;48.604;2.096;2022-11-20T11:58:14;7.20;99.90
10512;DHT22;5304;48.604;2.096;2022-11-20T12:00:41;7.20;99.90
10512;DHT22;5304;48.604;2.096;2022-11-20T12:03:37;7.20;99.90
10512;DHT22;5304;48.604;2.096;2022-11-20T12:06:23;7.30;99.90
10512;DHT22;5304;48.604;2.096;2022-11-20T12:09:10;7.30;99.90
10512;DHT22;5304;48.604;2.096;2022-11-20T12:12:02;7.30;99.90
10512;DHT22;5304;48.604;2.096;2022-11-20T12:14:49;7.40;99.90
10512;DHT22;5304;48.604;2.096;2022-11-20T12:17:37;7.40;99.90
10512;DHT22;5304;48.604;2.096;2022-11-20T12:20:33;7.40;99.90
10512;DHT22;5304;48.604;2.096;2022-11-20T12:23:28;7.50;99.90
10512;DHT22;5304;48.604;2.096;2022-11-20T12:26:54;7.60;99.90
10512;DHT22;5304;48.604;2.096;2022-11-20T12:30:00;7.70;99.90
10512;DHT22;5304;48.604;2.096;2022-11-20T12:33:11;7.80;99.90
10512;DHT22;5304;48.604;2.096;2022-11-20T12:45:32;8.20;99.90
10512;DHT22;5304;48.604;2.096;2022-11-20T13:00:23;8.30;99.90
10512;DHT22;5304;48.604;2.096;2022-11-20T13:08:48;8.30;99.90
10512;DHT22;5304;48.604;2.096;2022-11-20T13:11:41;8.30;99.90
10512;DHT22;5304;48.604;2.096;2022-11-20T13:14:41;8.30;99.90
10512;DHT22;5304;48.604;2.096;2022-11-20T13:20:33;8.90;99.90
10512;DHT22;5304;48.604;2.096;2022-11-20T13:23:26;9.20;99.90
10512;DHT22;5304;48.604;2.096;2022-11-20T13:26:20;9.20;99.90
10512;DHT22;5304;48.604;2.096;2022-11-20T13:31:50;9.30;99.90
10512;DHT22;5304;48.604;2.096;2022-11-20T13:34:34;9.30;99.90
10512;DHT22;5304;48.604;2.096;2022-11-20T13:40:22;9.60;99.90
10512;DHT22;5304;48.604;2.096;2022-11-20T13:43:46;9.80;99.90
10512;DHT22;5304;48.604;2.096;2022-11-20T13:46:42;9.90;99.90
10512;DHT22;5304;48.604;2.096;2022-11-20T13:49:39;9.90;99.90
10512;DHT22;5304;48.604;2.096;2022-11-20T13:59:11;9.70;99.90
10512;DHT22;5304;48.604;2.096;2022-11-20T14:02:02;9.70;99.90
10512;DHT22;5304;48.604;2.096;2022-11-20T14:04:49;9.70;99.90
10512;DHT22;5304;48.604;2.096;2022-11-20T14:07:39;9.60;99.90
10512;DHT22;5304;48.604;2.096;2022-11-20T14:10:27;9.70;99.90
10512;DHT22;5304;48.604;2.096;2022-11-20T14:13:19;9.80;99.90
10512;DHT22;5304;48.604;2.096;2022-11-20T14:16:04;9.80;99.90
10512;DHT22;5304;48.604;2.096;2022-11-20T14:18:49;9.90;99.90
10512;DHT22;5304;48.604;2.096;2022-11-20T14:21:33;9.90;99.90
10512;DHT22;5304;48.604;2.096;2022-11-20T14:24:23;9.90;99.90
10512;DHT22;5304;48.604;2.096;2022-11-20T14:27:18;9.90;99.90
10512;DHT22;5304;48.604;2.096;2022-11-20T14:30:03;9.80;99.90
10512;DHT22;5304;48.604;2.096;2022-11-20T14:32:49;9.80;99.90
10512;DHT22;5304;48.604;2.096;2022-11-20T14:35:48;9.80;99.90
10512;DHT22;5304;48.604;2.096;2022-11-20T14:38:33;9.70;99.90
10512;DHT22;5304;48.604;2.096;2022-11-20T14:41:20;9.70;99.90
10512;DHT22;5304;48.604;2.096;2022-11-20T14:44:06;9.80;99.90
10512;DHT22;5304;48.604;2.096;2022-11-20T14:46:54;9.80;99.90
10512;DHT22;5304;48.604;2.096;2022-11-20T14:49:40;9.80;99.90
10512;DHT22;5304;48.604;2.096;2022-11-20T14:52:27;9.80;99.90
10512;DHT22;5304;48.604;2.096;2022-11-20T14:55:14;9.70;99.90
10512;DHT22;5304;48.604;2.096;2022-11-20T14:58:23;9.60;99.90
10512;DHT22;5304;48.604;2.096;2022-11-20T15:01:12;9.50;99.90
10512;DHT22;5304;48.604;2.096;2022-11-20T15:04:10;9.40;99.90
10512;DHT22;5304;48.604;2.096;2022-11-20T15:06:58;9.30;99.90
10512;DHT22;5304;48.604;2.096;2022-11-20T15:09:42;9.30;99.90
10512;DHT22;5304;48.604;2.096;2022-11-20T15:12:27;9.40;99.90
10512;DHT22;5304;48.604;2.096;2022-11-20T15:15:12;9.30;99.90
10512;DHT22;5304;48.604;2.096;2022-11-20T15:17:59;9.40;99.90
10512;DHT22;5304;48.604;2.096;2022-11-20T15:20:43;9.40;99.90
10512;DHT22;5304;48.604;2.096;2022-11-20T15:23:29;9.50;99.90
10512;DHT22;5304;48.604;2.096;2022-11-20T15:26:22;9.40;99.90
10512;DHT22;5304;48.604;2.096;2022-11-20T15:29:12;9.40;99.90
10512;DHT22;5304;48.604;2.096;2022-11-20T15:31:57;9.30;99.90
10512;DHT22;5304;48.604;2.096;2022-11-20T15:34:42;9.30;99.90
10512;DHT22;5304;48.604;2.096;2022-11-20T15:37:26;9.20;99.90
10512;DHT22;5304;48.604;2.096;2022-11-20T15:40:11;9.20;99.90
10512;DHT22;5304;48.604;2.096;2022-11-20T15:42:56;9.10;99.90
10512;DHT22;5304;48.604;2.096;2022-11-20T15:46:13;9.10;99.90
10512;DHT22;5304;48.604;2.096;2022-11-20T15:48:59;9.10;99.90
10512;DHT22;5304;48.604;2.096;2022-11-20T15:51:47;9.00;99.90
10512;DHT22;5304;48.604;2.096;2022-11-20T15:54:32;9.00;99.90
10512;DHT22;5304;48.604;2.096;2022-11-20T15:57:16;8.80;99.90
10512;DHT22;5304;48.604;2.096;2022-11-20T16:00:01;8.70;99.90
10512;DHT22;5304;48.604;2.096;2022-11-20T16:02:46;8.50;99.90
10512;DHT22;5304;48.604;2.096;2022-11-20T16:05:30;8.40;99.90
10512;DHT22;5304;48.604;2.096;2022-11-20T16:08:15;8.30;99.90
10512;DHT22;5304;48.604;2.096;2022-11-20T16:11:00;8.20;99.90
10512;DHT22;5304;48.604;2.096;2022-11-20T16:13:45;8.20;99.90
10512;DHT22;5304;48.604;2.096;2022-11-20T16:16:48;8.10;99.90
10512;DHT22;5304;48.604;2.096;2022-11-20T16:19:33;8.00;99.90
10512;DHT22;5304;48.604;2.096;2022-11-20T16:22:18;7.90;99.90
10512;DHT22;5304;48.604;2.096;2022-11-20T16:25:02;7.80;99.90
10512;DHT22;5304;48.604;2.096;2022-11-20T16:27:48;7.70;99.90
10512;DHT22;5304;48.604;2.096;2022-11-20T16:30:32;7.60;99.90
10512;DHT22;5304;48.604;2.096;2022-11-20T16:33:17;7.50;99.90
10512;DHT22;5304;48.604;2.096;2022-11-20T16:36:12;7.50;99.90
10512;DHT22;5304;48.604;2.096;2022-11-20T16:38:59;7.40;99.90
10512;DHT22;5304;48.604;2.096;2022-11-20T16:41:44;7.30;99.90
10512;DHT22;5304;48.604;2.096;2022-11-20T16:44:28;7.20;99.90
10512;DHT22;5304;48.604;2.096;2022-11-20T16:47:12;7.10;99.90
10512;DHT22;5304;48.604;2.096;2022-11-20T16:49:57;7.00;99.90
10512;DHT22;5304;48.604;2.096;2022-11-20T16:52:42;6.90;99.90
10512;DHT22;5304;48.604;2.096;2022-11-20T16:55:26;6.90;99.90
10512;DHT22;5304;48.604;2.096;2022-11-20T16:58:11;6.80;99.90
10512;DHT22;5304;48.604;2.096;2022-11-20T17:00:55;6.70;99.90
10512;DHT22;5304;48.604;2.096;2022-11-20T17:03:41;6.70;99.90
10512;DHT22;5304;48.604;2.096;2022-11-20T17:06:28;6.60;99.90
10512;DHT22;5304;48.604;2.096;2022-11-20T17:09:13;6.50;99.90
10512;DHT22;5304;48.604;2.096;2022-11-20T17:11:57;6.40;99.90
10512;DHT22;5304;48.604;2.096;2022-11-20T17:14:42;6.40;99.90
10512;DHT22;5304;48.604;2.096;2022-11-20T17:17:27;6.30;99.90
10512;DHT22;5304;48.604;2.096;2022-11-20T17:20:11;6.30;99.90
10512;DHT22;5304;48.604;2.096;2022-11-20T17:22:55;6.20;99.90
10512;DHT22;5304;48.604;2.096;2022-11-20T17:25:39;6.20;99.90
10512;DHT22;5304;48.604;2.096;2022-11-20T17:28:24;6.10;99.90
10512;DHT22;5304;48.604;2.096;2022-11-20T17:31:11;6.10;99.90
10512;DHT22;5304;48.604;2.096;2022-11-20T17:33:55;6.00;99.90
10512;DHT22;5304;48.604;2.096;2022-11-20T17:36:40;5.90;99.90
10512;DHT22;5304;48.604;2.096;2022-11-20T17:39:27;5.90;99.90
10512;DHT22;5304;48.604;2.096;2022-11-20T17:42:12;5.90;99.90
10512;DHT22;5304;48.604;2.096;2022-11-20T17:45:12;5.80;99.90
10512;DHT22;5304;48.604;2.096;2022-11-20T17:47:56;5.80;99.90
10512;DHT22;5304;48.604;2.096;2022-11-20T17:50:41;5.80;99.90
10512;DHT22;5304;48.604;2.096;2022-11-20T17:53:26;5.80;99.90
10512;DHT22;5304;48.604;2.096;2022-11-20T17:56:11;5.80;99.90
10512;DHT22;5304;48.604;2.096;2022-11-20T17:59:15;5.80;99.90
10512;DHT22;5304;48.604;2.096;2022-11-20T18:02:01;5.80;99.90
10512;DHT22;5304;48.604;2.096;2022-11-20T18:04:45;5.80;99.90
10512;DHT22;5304;48.604;2.096;2022-11-20T18:07:30;5.70;99.90
10512;DHT22;5304;48.604;2.096;2022-11-20T18:10:15;5.80;99.90
10512;DHT22;5304;48.604;2.096;2022-11-20T18:12:59;5.80;99.90
10512;DHT22;5304;48.604;2.096;2022-11-20T18:15:44;5.90;99.90
10512;DHT22;5304;48.604;2.096;2022-11-20T18:18:28;5.90;99.90
10512;DHT22;5304;48.604;2.096;2022-11-20T18:21:13;5.80;99.90
10512;DHT22;5304;48.604;2.096;2022-11-20T18:23:57;5.80;99.90
10512;DHT22;5304;48.604;2.096;2022-11-20T18:26:42;5.90;99.90
10512;DHT22;5304;48.604;2.096;2022-11-20T18:29:27;6.00;99.90
10512;DHT22;5304;48.604;2.096;2022-11-20T18:32:11;6.00;99.90
10512;DHT22;5304;48.604;2.096;2022-11-20T18:34:56;6.10;99.90
10512;DHT22;5304;48.604;2.096;2022-11-20T18:37:40;6.20;99.90
10512;DHT22;5304;48.604;2.096;2022-11-20T18:40:24;6.30;99.90
10512;DHT22;5304;48.604;2.096;2022-11-20T18:43:10;6.50;99.90
10512;DHT22;5304;48.604;2.096;2022-11-20T18:46:13;6.70;99.90
10512;DHT22;5304;48.604;2.096;2022-11-20T18:48:57;6.90;99.90
10512;DHT22;5304;48.604;2.096;2022-11-20T18:51:42;7.10;99.90
10512;DHT22;5304;48.604;2.096;2022-11-20T18:54:27;7.10;99.90
10512;DHT22;5304;48.604;2.096;2022-11-20T18:57:11;7.20;99.90
10512;DHT22;5304;48.604;2.096;2022-11-20T18:59:58;7.30;99.90
10512;DHT22;5304;48.604;2.096;2022-11-20T19:02:43;7.30;99.90
10512;DHT22;5304;48.604;2.096;2022-11-20T19:05:28;7.40;99.90
10512;DHT22;5304;48.604;2.096;2022-11-20T19:08:12;7.50;99.90
10512;DHT22;5304;48.604;2.096;2022-11-20T19:11:05;7.50;99.90
10512;DHT22;5304;48.604;2.096;2022-11-20T19:13:49;7.50;99.90
10512;DHT22;5304;48.604;2.096;2022-11-20T19:16:34;7.60;99.90
10512;DHT22;5304;48.604;2.096;2022-11-20T19:19:19;7.60;99.90
10512;DHT22;5304;48.604;2.096;2022-11-20T19:22:03;7.60;99.90
10512;DHT22;5304;48.604;2.096;2022-11-20T19:24:48;7.60;99.90
10512;DHT22;5304;48.604;2.096;2022-11-20T19:27:33;7.60;99.90